Time;durP1;ratioP1;P1;durP2;ratioP2;P2;SDS_P1;SDS_P2;PMS_P1;PMS_P2;Temp;Humidity;BMP_temperature;BMP_pressure;BME280_temperature;BME280_humidity;BME280_pressure;Samples;Min_cycle;Max_cycle;Signal;HPM_P1;HPM_P2
2022/06/17 00:00:13;;;;;;;3.62;1.50;;;;;;;18.61;61.63;99941.72;7644331;32;37831;-78
2022/06/17 00:04:29;;;;;;;1.45;1.27;;;;;;;18.52;62.02;99940.87;7657600;32;36526;-78
2022/06/17 00:08:49;;;;;;;2.03;1.50;;;;;;;18.47;62.32;99941.84;7657730;32;40610;-79
2022/06/17 00:13:05;;;;;;;3.45;1.92;;;;;;;18.20;63.33;99945.66;7644095;32;39968;-79
2022/06/17 00:17:22;;;;;;;3.05;1.52;;;;;;;18.22;63.39;99951.66;7657096;32;37991;-79
2022/06/17 00:21:42;;;;;;;7.22;1.80;;;;;;;18.27;62.91;99946.00;7643947;32;37085;-79
2022/06/17 00:25:58;;;;;;;3.30;1.77;;;;;;;18.10;63.52;99951.47;7644106;32;39018;-78
2022/06/17 00:30:19;;;;;;;2.55;1.62;;;;;;;17.98;64.22;99952.88;7657171;32;39981;-78
2022/06/17 00:34:36;;;;;;;5.43;2.00;;;;;;;17.90;64.30;99950.91;7643109;32;38145;-78
2022/06/17 00:38:52;;;;;;;2.62;1.90;;;;;;;17.78;64.36;99948.69;7656987;32;36899;-79
2022/06/17 00:43:22;;;;;;;3.45;1.62;;;;;;;17.80;64.54;99957.47;7643423;32;39361;-79
2022/06/17 00:47:57;;;;;;;5.55;2.10;;;;;;;17.83;64.47;99950.47;7644497;32;39893;-77
2022/06/17 00:52:22;;;;;;;3.42;1.98;;;;;;;17.74;65.17;99958.72;7644215;32;37923;-78
2022/06/17 00:56:38;;;;;;;3.67;2.20;;;;;;;17.69;65.47;99949.75;7656824;32;37821;-78
2022/06/17 01:00:57;;;;;;;3.70;2.37;;;;;;;17.97;64.73;99944.91;7659707;32;40097;-79
2022/06/17 01:05:14;;;;;;;4.93;2.40;;;;;;;17.99;64.01;99942.66;7659988;32;39681;-79
2022/06/17 01:14:14;;;;;;;2.97;1.85;;;;;;;18.02;64.08;99961.31;7648392;32;37083;-78
2022/06/17 01:18:31;;;;;;;4.97;2.35;;;;;;;17.96;64.30;99957.09;7646649;32;39821;-79
2022/06/17 01:22:50;;;;;;;3.33;2.00;;;;;;;17.82;64.25;99968.19;7646405;32;39568;-79
2022/06/17 01:27:07;;;;;;;2.78;2.03;;;;;;;17.94;64.29;99960.16;7659604;32;38615;-78
2022/06/17 01:31:23;;;;;;;6.28;2.20;;;;;;;18.04;63.78;99966.50;7659083;32;37089;-78
2022/06/17 01:35:49;;;;;;;4.57;2.50;;;;;;;17.90;64.30;99969.38;7645792;32;39024;-78
2022/06/17 01:40:06;;;;;;;4.50;2.28;;;;;;;17.70;65.05;99979.78;7646310;32;40492;-78
2022/06/17 01:44:33;;;;;;;4.40;2.15;;;;;;;17.78;64.60;99978.19;7659476;32;37531;-79
2022/06/17 01:48:57;;;;;;;4.25;2.40;;;;;;;17.83;64.37;99980.81;7646166;32;36732;-79
2022/06/17 01:53:16;;;;;;;4.20;2.28;;;;;;;17.80;64.26;99981.47;7646347;32;39448;-79
2022/06/17 01:57:38;;;;;;;4.53;2.35;;;;;;;17.86;64.10;99980.22;7646098;32;39987;-78
2022/06/17 02:01:57;;;;;;;5.22;2.35;;;;;;;17.91;64.08;99996.62;7646050;32;38823;-78
2022/06/17 02:06:36;;;;;;;4.05;2.45;;;;;;;17.88;64.03;100000.00;7646088;32;37785;-79
2022/06/17 02:10:53;;;;;;;4.18;2.40;;;;;;;17.75;64.48;100001.72;7621187;32;39355;-78
2022/06/17 02:15:10;;;;;;;6.28;1.98;;;;;;;17.64;64.63;100006.66;7635025;32;40126;-78
2022/06/17 02:19:30;;;;;;;7.12;2.58;;;;;;;17.87;63.70;100003.09;7644878;32;37929;-78
2022/06/17 02:23:46;;;;;;;8.63;3.00;;;;;;;17.68;65.02;100008.78;7645877;32;37351;-77
2022/06/17 02:28:03;;;;;;;4.70;2.62;;;;;;;17.63;65.02;100010.53;7645399;32;38853;-78
2022/06/17 02:32:20;;;;;;;5.30;2.53;;;;;;;17.67;64.74;100004.41;7644855;32;40178;-78
2022/06/17 02:36:48;;;;;;;5.75;2.47;;;;;;;17.72;64.47;100002.31;7645242;32;37903;-78
2022/06/17 02:41:07;;;;;;;5.53;2.40;;;;;;;17.64;64.39;100012.19;7646402;32;37739;-78
2022/06/17 02:45:26;;;;;;;6.82;3.10;;;;;;;17.64;64.37;100014.09;7645196;32;40478;-78
2022/06/17 02:49:43;;;;;;;6.80;2.62;;;;;;;17.70;63.81;100009.31;7658526;32;39945;-78
2022/06/17 02:54:01;;;;;;;5.70;3.25;;;;;;;17.55;64.41;100016.00;7658383;32;38664;-78
2022/06/17 02:58:37;;;;;;;9.57;3.03;;;;;;;17.59;64.86;100020.59;7633126;32;36851;-79
2022/06/17 03:02:56;;;;;;;4.55;2.40;;;;;;;17.44;65.57;100013.47;7658266;32;39069;-79
2022/06/17 03:07:15;;;;;;;7.47;3.42;;;;;;;17.48;65.24;100010.09;7645221;32;40057;-78
2022/06/17 03:11:31;;;;;;;4.47;3.00;;;;;;;17.58;65.26;100007.09;7658098;32;38055;-79
2022/06/17 03:15:49;;;;;;;6.50;3.35;;;;;;;17.67;64.57;99988.69;7658115;32;36083;-79
2022/06/17 03:20:07;;;;;;;4.93;3.10;;;;;;;17.76;64.13;99991.47;7657450;32;39764;-78
2022/06/17 03:24:25;;;;;;;5.22;3.22;;;;;;;17.82;63.87;100001.25;7645185;32;39854;-78
2022/06/17 03:28:51;;;;;;;7.18;3.40;;;;;;;17.83;64.09;100009.22;7644584;32;38039;-78
2022/06/17 03:33:17;;;;;;;6.80;3.72;;;;;;;17.72;65.19;100018.06;7644272;32;37022;-78
2022/06/17 03:38:05;;;;;;;6.78;3.65;;;;;;;17.82;64.71;100015.84;7645484;32;40244;-78
2022/06/17 03:42:29;;;;;;;7.93;3.62;;;;;;;17.63;65.83;100032.59;7657895;32;38303;-78
2022/06/17 03:47:11;;;;;;;10.77;3.97;;;;;;;17.92;65.02;100022.25;7657717;32;37993;-79
2022/06/17 03:51:28;;;;;;;7.30;4.22;;;;;;;17.89;65.33;100031.19;7656064;32;37033;-78
2022/06/17 03:55:44;;;;;;;6.62;4.12;;;;;;;17.91;65.32;100029.72;7657822;32;39308;-78
2022/06/17 04:00:01;;;;;;;10.73;4.62;;;;;;;17.98;65.18;100029.28;7657801;32;39838;-78
2022/06/17 04:04:17;;;;;;;9.98;4.53;;;;;;;18.03;65.19;100034.66;7656933;32;38013;-78
2022/06/17 04:08:50;;;;;;;7.93;4.53;;;;;;;17.93;65.93;100046.78;7657680;32;37125;-77
2022/06/17 04:13:06;;;;;;;10.88;5.32;;;;;;;18.14;65.65;100043.50;7657702;32;38356;-78
2022/06/17 04:17:37;;;;;;;10.40;5.40;;;;;;;18.34;65.17;100042.12;7642726;32;40095;-79
2022/06/17 04:21:58;;;;;;;8.93;6.05;;;;;;;18.31;65.37;100046.31;7644008;32;38791;-78
2022/06/17 04:26:31;;;;;;;12.90;5.45;;;;;;;18.37;64.67;100047.84;7644337;32;37673;-79
2022/06/17 04:30:52;;;;;;;11.63;5.95;;;;;;;18.36;65.17;100054.47;7645163;32;39299;-79
2022/06/17 04:35:13;;;;;;;10.13;5.68;;;;;;;18.54;65.10;100057.31;7651246;32;40107;-79
2022/06/17 04:39:42;;;;;;;9.65;5.70;;;;;;;18.57;65.92;100043.69;7652083;32;37860;-79
2022/06/17 04:44:01;;;;;;;9.02;6.15;;;;;;;18.67;65.38;100039.81;7665656;32;37086;-78
2022/06/17 04:48:17;;;;;;;12.25;5.68;;;;;;;18.91;64.90;100042.19;7665402;32;40172;-79
2022/06/17 04:52:39;;;;;;;10.13;6.00;;;;;;;19.07;64.87;100050.03;7651758;32;40045;-79
2022/06/17 04:56:57;;;;;;;11.65;6.00;;;;;;;19.10;64.36;100049.38;7665287;32;37923;-79
2022/06/17 05:01:20;;;;;;;10.80;5.95;;;;;;;19.22;64.48;100051.50;7651731;32;37817;-79
2022/06/17 05:05:39;;;;;;;15.52;5.80;;;;;;;19.16;64.37;100058.31;7651731;32;39875;-79
2022/06/17 05:10:04;;;;;;;13.98;6.00;;;;;;;19.25;65.16;100061.94;7665014;32;39905;-78
2022/06/17 05:14:39;;;;;;;8.18;4.57;;;;;;;19.33;64.80;100058.34;7651549;32;38733;-80
2022/06/17 05:18:55;;;;;;;10.85;6.30;;;;;;;19.25;65.25;100064.69;7664495;32;37364;-80
2022/06/17 05:23:13;;;;;;;11.32;6.90;;;;;;;19.40;65.13;100068.91;7664610;32;39988;-80
2022/06/17 05:27:29;;;;;;;10.15;6.00;;;;;;;19.56;65.38;100060.94;7651217;32;39930;-82
2022/06/17 05:31:49;;;;;;;12.48;6.95;;;;;;;19.77;64.62;100063.91;7664307;32;37666;-81
2022/06/17 05:36:06;;;;;;;10.30;5.93;;;;;;;19.83;64.83;100066.19;7651392;32;37044;-75
2022/06/17 05:40:22;;;;;;;10.50;5.95;;;;;;;19.87;64.78;100094.81;7663548;32;39741;-76
2022/06/17 05:44:39;;;;;;;11.20;5.95;;;;;;;19.70;63.68;100105.84;7660032;32;40073;-76
2022/06/17 05:48:55;;;;;;;10.45;6.40;;;;;;;19.78;63.87;100107.84;7659391;32;37597;-77
2022/06/17 05:53:13;;;;;;;8.63;5.85;;;;;;;19.77;63.79;100108.16;7658962;32;36812;-76
2022/06/17 05:57:29;;;;;;;10.60;6.37;;;;;;;19.87;62.94;100111.41;7659314;32;40060;-76
2022/06/17 06:01:46;;;;;;;13.10;6.43;;;;;;;19.30;63.82;100126.16;7659313;32;40748;-76
2022/06/17 06:06:02;;;;;;;11.90;6.22;;;;;;;19.50;63.05;100130.22;7659392;32;37571;-76
2022/06/17 06:10:19;;;;;;;9.57;6.65;;;;;;;19.27;64.06;100129.56;7658602;32;37944;-76
2022/06/17 06:14:35;;;;;;;11.40;6.82;;;;;;;19.02;64.92;100147.69;7644324;32;40040;-76
2022/06/17 06:18:51;;;;;;;9.65;5.90;;;;;;;19.14;65.25;100147.06;7645032;32;40712;-75
2022/06/17 06:23:07;;;;;;;11.35;5.95;;;;;;;19.45;64.50;100148.94;7658879;32;38019;-72
2022/06/17 06:27:23;;;;;;;9.73;6.03;;;;;;;19.29;65.07;100145.81;7658986;32;37118;-75
2022/06/17 06:31:40;;;;;;;12.63;6.70;;;;;;;19.50;63.76;100146.81;7658603;32;40111;-75
2022/06/17 06:35:56;;;;;;;11.27;6.78;;;;;;;19.33;63.61;100146.78;7658702;32;40038;-75
2022/06/17 06:40:13;;;;;;;12.82;6.25;;;;;;;19.80;64.01;100149.81;7658793;32;38666;-75
2022/06/17 06:44:29;;;;;;;13.07;6.75;;;;;;;19.97;61.17;100157.31;7666037;32;38049;-80
2022/06/17 06:48:46;;;;;;;11.30;6.53;;;;;;;20.19;62.68;100167.38;7658505;32;39529;-76
2022/06/17 06:53:03;;;;;;;10.57;6.47;;;;;;;20.16;61.03;100165.28;7658686;32;39775;-75
2022/06/17 06:57:19;;;;;;;11.88;6.28;;;;;;;20.17;62.74;100164.12;7658384;32;38636;-75
2022/06/17 07:01:46;;;;;;;9.95;5.95;;;;;;;20.14;62.11;100159.22;7658045;32;37799;-75
2022/06/17 07:06:05;;;;;;;12.37;6.40;;;;;;;20.05;61.60;100153.69;7647990;32;39415;-79
2022/06/17 07:10:28;;;;;;;11.38;6.37;;;;;;;20.17;60.27;100157.78;7644580;32;40727;-82
2022/06/17 07:14:44;;;;;;;9.40;6.00;;;;;;;19.92;60.32;100157.47;7657913;32;38017;-77
2022/06/17 07:19:00;;;;;;;12.23;7.18;;;;;;;20.38;62.15;100164.25;7658306;32;37858;-76
2022/06/17 07:23:29;;;;;;;9.45;6.18;;;;;;;20.12;61.69;100158.75;7657225;32;39424;-77
2022/06/17 07:27:45;;;;;;;11.90;6.55;;;;;;;20.01;62.67;100152.75;7657853;32;40606;-78
2022/06/17 07:32:02;;;;;;;8.82;6.00;;;;;;;20.29;62.81;100155.16;7657165;32;38560;-76
2022/06/17 07:40:54;;;;;;;9.77;6.40;;;;;;;20.39;61.27;100149.28;7657366;32;40149;-76
2022/06/17 07:45:19;;;;;;;9.77;6.53;;;;;;;20.43;61.77;100150.22;7657695;32;40151;-76
2022/06/17 07:49:37;;;;;;;13.30;6.70;;;;;;;20.75;60.93;100156.38;7657698;32;37978;-75
2022/06/17 07:53:55;;;;;;;9.57;5.93;;;;;;;20.50;60.74;100157.22;7657579;32;36712;-75
2022/06/17 07:58:12;;;;;;;9.63;6.25;;;;;;;21.06;59.55;100159.97;7657078;32;39526;-76
2022/06/17 08:02:29;;;;;;;8.93;5.57;;;;;;;20.58;62.04;100159.97;7657295;32;39953;-75
2022/06/17 08:06:50;;;;;;;10.52;5.65;;;;;;;20.65;62.80;100155.91;7653086;32;38008;-74
2022/06/17 08:11:11;;;;;;;9.73;5.90;;;;;;;21.36;59.82;100158.03;7655721;32;37101;-76
2022/06/17 08:15:27;;;;;;;8.65;4.55;;;;;;;21.45;58.86;100144.91;7639511;32;40030;-75
2022/06/17 08:19:44;;;;;;;7.78;4.57;;;;;;;21.85;59.33;100152.81;7630552;32;40806;-75
2022/06/17 08:24:00;;;;;;;9.15;4.80;;;;;;;21.75;57.94;100142.94;7630527;32;37870;-75
2022/06/17 08:28:17;;;;;;;8.52;3.87;;;;;;;22.26;57.82;100140.00;7616503;32;37190;-75
2022/06/17 08:32:45;;;;;;;6.03;3.28;;;;;;;22.76;58.28;100137.38;7652985;32;39853;-75
2022/06/17 08:37:01;;;;;;;5.25;3.40;;;;;;;22.91;57.41;100147.03;7655995;32;40051;-76
2022/06/17 08:41:23;;;;;;;4.22;2.80;;;;;;;22.71;55.61;100152.31;7656134;32;38821;-76
2022/06/17 08:45:58;;;;;;;6.87;3.33;;;;;;;22.76;53.78;100143.75;7656307;32;37877;-75
2022/06/17 08:50:27;;;;;;;4.45;2.87;;;;;;;23.08;55.05;100143.22;7655621;32;38979;-75
2022/06/17 08:55:07;;;;;;;5.78;2.62;;;;;;;22.95;53.64;100147.94;7642803;32;39944;-76
2022/06/17 08:59:45;;;;;;;4.70;2.62;;;;;;;23.54;52.33;100141.06;7655414;32;37992;-76
2022/06/17 09:04:19;;;;;;;4.57;2.67;;;;;;;23.54;51.07;100146.66;7655968;32;37050;-78
2022/06/17 09:08:42;;;;;;;8.63;2.47;;;;;;;23.14;51.19;100155.72;7655504;32;39034;-77
2022/06/17 09:13:13;;;;;;;4.37;2.47;;;;;;;23.55;51.53;100143.50;7655660;32;40548;-77
2022/06/17 09:17:41;;;;;;;4.72;2.50;;;;;;;23.53;53.04;100147.81;7655448;32;38045;-78
2022/06/17 09:22:11;;;;;;;5.05;2.78;;;;;;;23.89;51.36;100155.28;7658528;32;37047;-77
2022/06/17 09:27:01;;;;;;;9.73;3.00;;;;;;;24.40;52.84;100156.69;7627822;32;39841;-75
2022/06/17 09:31:33;;;;;;;5.18;2.92;;;;;;;24.75;48.65;100162.44;7653900;32;40067;-78
2022/06/17 09:36:09;;;;;;;6.55;3.05;;;;;;;24.71;48.68;100175.47;7646620;32;36295;-77
2022/06/17 09:40:52;;;;;;;7.32;3.08;;;;;;;25.03;48.80;100175.50;7647451;32;37978;-77
2022/06/17 09:45:34;;;;;;;6.43;2.87;;;;;;;25.12;49.44;100182.47;7647747;32;39033;-77
2022/06/17 09:50:06;;;;;;;9.30;2.85;;;;;;;25.17;47.27;100197.34;7634669;32;39905;-78
2022/06/17 09:54:40;;;;;;;10.05;2.90;;;;;;;25.33;47.54;100187.00;7657708;32;37719;-79
2022/06/17 09:59:16;;;;;;;5.80;3.17;;;;;;;25.14;49.10;100198.06;7647076;32;37712;-77
2022/06/17 10:03:37;;;;;;;9.10;3.08;;;;;;;25.57;47.02;100194.34;7646365;32;40187;-76
2022/06/17 10:08:16;;;;;;;6.55;2.95;;;;;;;25.66;48.99;100194.13;7659041;32;40634;-76
2022/06/17 10:12:55;;;;;;;4.62;3.08;;;;;;;25.73;46.16;100185.91;7642569;32;38882;-76
2022/06/17 10:22:39;;;;;;;4.72;2.78;;;;;;;25.34;47.59;100202.59;7649550;32;39315;-77
2022/06/17 10:27:43;;;;;;;7.72;3.40;;;;;;;24.87;47.46;100211.72;7658402;32;39955;-76
2022/06/17 10:32:09;;;;;;;7.72;2.92;;;;;;;25.40;49.39;100198.31;7650053;32;37936;-77
2022/06/17 10:36:25;;;;;;;4.60;2.50;;;;;;;26.00;45.96;100208.47;7659068;32;36971;-77
2022/06/17 10:40:41;;;;;;;5.20;2.60;;;;;;;26.28;45.81;100199.06;7657378;32;39418;-77
2022/06/17 10:45:01;;;;;;;3.65;2.53;;;;;;;26.60;43.46;100202.47;7657585;32;40829;-77
2022/06/17 10:49:28;;;;;;;5.55;3.12;;;;;;;26.49;41.53;100199.50;7657632;32;38450;-77
2022/06/17 10:53:54;;;;;;;4.70;3.00;;;;;;;26.42;42.44;100196.53;7645970;32;37086;-79
2022/06/17 10:58:22;;;;;;;2.67;2.37;;;;;;;26.80;39.15;100180.88;7658785;32;39779;-78
2022/06/17 11:02:38;;;;;;;4.60;2.78;;;;;;;26.78;39.60;100194.44;7658739;32;40827;-78
2022/06/17 11:07:00;;;;;;;4.43;2.75;;;;;;;26.80;38.12;100183.69;7658413;32;37936;-77
2022/06/17 11:16:09;;;;;;;3.80;3.00;;;;;;;26.92;39.03;100183.53;7648463;32;39302;-77
2022/06/17 11:20:28;;;;;;;6.03;2.65;;;;;;;27.34;38.93;100179.03;7658664;32;40838;-77
2022/06/17 11:25:27;;;;;;;4.32;2.70;;;;;;;27.74;37.97;100188.78;7657890;32;37965;-78
2022/06/17 11:29:47;;;;;;;3.55;2.58;;;;;;;27.58;37.23;100196.56;7646884;32;36140;-77
2022/06/17 11:34:46;;;;;;;6.53;2.58;;;;;;;27.86;36.17;100202.56;7645111;32;39405;-78
2022/06/17 11:39:28;;;;;;;5.50;2.30;;;;;;;28.21;33.85;100170.59;7604076;32;40959;-78
2022/06/17 11:43:45;;;;;;;4.85;2.53;;;;;;;28.99;32.18;100194.25;7657123;32;37947;-77
2022/06/17 11:48:22;;;;;;;4.55;2.30;;;;;;;28.65;33.16;100185.94;7658048;32;37975;-78
2022/06/17 11:52:38;;;;;;;5.85;2.42;;;;;;;28.82;33.56;100182.47;7658009;32;40251;-78
2022/06/17 11:56:55;;;;;;;8.88;2.75;;;;;;;29.43;31.92;100173.75;7657887;32;40030;-78
2022/06/17 12:01:15;;;;;;;5.12;2.47;;;;;;;29.40;32.45;100163.31;7657876;32;38121;-78
2022/06/17 12:05:33;;;;;;;7.20;2.33;;;;;;;28.76;32.82;100163.59;7657860;32;37806;-78
2022/06/17 12:10:02;;;;;;;5.35;2.37;;;;;;;29.00;30.30;100159.37;7644517;32;38446;-77
2022/06/17 12:14:39;;;;;;;2.85;1.80;;;;;;;29.26;29.90;100157.59;7657441;32;40897;-77
2022/06/17 12:18:59;;;;;;;4.65;1.90;;;;;;;29.27;27.69;100150.78;7657593;32;38729;-77
2022/06/17 12:23:26;;;;;;;5.00;2.20;;;;;;;29.51;27.46;100146.50;7657837;32;37063;-78
2022/06/17 12:27:57;;;;;;;3.15;1.80;;;;;;;29.18;27.73;100146.31;7657706;32;39920;-78
2022/06/17 12:32:39;;;;;;;4.07;2.00;;;;;;;29.53;27.04;100144.94;7657374;32;39925;-79
2022/06/17 12:37:23;;;;;;;2.95;2.30;;;;;;;28.89;26.59;100138.84;7657183;32;37280;-76
2022/06/17 12:42:01;;;;;;;5.95;2.10;;;;;;;28.90;28.52;100140.47;7656834;32;37970;-77
2022/06/17 12:46:22;;;;;;;5.40;2.33;;;;;;;28.92;28.45;100127.63;7644827;32;39250;-77
2022/06/17 12:55:47;;;;;;;4.53;2.20;;;;;;;28.46;28.66;100133.62;7659238;32;37699;-78
2022/06/17 13:00:21;;;;;;;3.10;2.10;;;;;;;28.60;28.99;100138.59;7660161;32;37065;-78
2022/06/17 13:05:02;;;;;;;4.82;2.15;;;;;;;28.86;28.38;100128.41;7660218;32;39036;-77
2022/06/17 13:09:40;;;;;;;2.83;2.08;;;;;;;29.14;27.36;100128.59;7660098;32;41000;-78
2022/06/17 13:14:15;;;;;;;3.00;1.83;;;;;;;29.71;28.32;100118.94;7652490;32;237137;-78
2022/06/17 13:18:58;;;;;;;4.93;2.30;;;;;;;29.66;28.09;100113.69;7659953;32;37610;-77
2022/06/17 13:23:30;;;;;;;2.85;2.05;;;;;;;29.71;28.76;100116.13;7648410;32;39557;-78
2022/06/17 13:27:57;;;;;;;2.70;2.23;;;;;;;29.37;26.45;100114.38;7647339;32;40035;-78
2022/06/17 13:32:25;;;;;;;3.85;2.15;;;;;;;29.48;27.54;100134.06;7646443;32;37936;-78
2022/06/17 13:36:51;;;;;;;2.83;2.10;;;;;;;29.56;26.22;100123.66;7646436;32;37751;-79
2022/06/17 13:41:19;;;;;;;4.85;2.17;;;;;;;29.87;27.39;100113.84;7659604;32;39269;-78
2022/06/17 13:45:58;;;;;;;4.70;2.10;;;;;;;30.16;26.05;100119.53;7646212;32;40034;-77
2022/06/17 13:50:17;;;;;;;4.03;1.92;;;;;;;30.59;25.53;100118.81;7659389;32;38825;-78
2022/06/17 13:55:14;;;;;;;4.35;1.70;;;;;;;30.28;25.98;100121.94;7648174;32;37167;-78
2022/06/17 13:59:42;;;;;;;4.03;1.60;;;;;;;30.21;24.48;100110.69;7628266;32;39116;-77
2022/06/17 14:04:01;;;;;;;4.12;1.80;;;;;;;29.99;23.86;100123.09;7631950;32;40516;-76
2022/06/17 14:08:18;;;;;;;2.50;1.55;;;;;;;29.91;25.55;100117.44;7632317;32;38026;-77
2022/06/17 14:12:47;;;;;;;1.90;1.60;;;;;;;30.12;25.88;100113.88;7643109;32;37289;-78
2022/06/17 14:17:19;;;;;;;2.62;1.60;;;;;;;30.06;24.93;100114.66;7644700;32;39414;-79
2022/06/17 14:21:52;;;;;;;2.87;1.42;;;;;;;30.30;26.08;100108.31;7646168;32;40063;-76
2022/06/17 14:26:08;;;;;;;3.55;1.70;;;;;;;30.48;24.20;100118.81;7658017;32;38022;-77
2022/06/17 14:30:31;;;;;;;2.17;1.33;;;;;;;30.37;24.77;100126.44;7658578;32;37021;-75
2022/06/17 14:34:50;;;;;;;3.42;1.60;;;;;;;30.79;25.37;100127.69;7638365;32;39235;-77
2022/06/17 14:39:32;;;;;;;2.33;1.40;;;;;;;30.83;25.22;100129.28;7658555;32;40886;-78
2022/06/17 14:43:50;;;;;;;4.50;1.40;;;;;;;30.81;25.15;100125.28;7649803;32;38067;-79
2022/06/17 14:48:12;;;;;;;2.20;1.25;;;;;;;31.10;25.03;100120.47;7653908;32;37048;-78
2022/06/17 14:52:30;;;;;;;2.33;1.20;;;;;;;30.89;23.52;100121.22;7657176;32;39500;-76
2022/06/17 14:56:58;;;;;;;3.30;1.23;;;;;;;30.68;23.54;100122.03;7657263;32;42278;-74
2022/06/17 15:01:32;;;;;;;5.10;1.40;;;;;;;30.65;25.50;100103.97;7657544;32;37973;-80
2022/06/17 15:05:50;;;;;;;2.55;1.17;;;;;;;30.87;24.66;100106.75;7658891;32;37076;-80
2022/06/17 15:10:15;;;;;;;4.10;1.55;;;;;;;30.21;21.84;100102.25;7644906;32;39164;-80
2022/06/17 15:14:41;;;;;;;0.90;0.90;;;;;;;30.18;22.11;100105.88;7657256;32;40068;-73
2022/06/17 15:18:59;;;;;;;3.30;1.17;;;;;;;29.81;23.70;100106.97;7653834;32;38561;-76
2022/06/17 15:23:41;;;;;;;3.85;0.95;;;;;;;29.94;23.36;100097.00;7656961;32;37016;-75
2022/06/17 15:28:15;;;;;;;1.92;0.88;;;;;;;29.75;23.04;100095.28;7657225;32;39826;-79
2022/06/17 15:32:54;;;;;;;2.05;1.00;;;;;;;29.47;24.39;100106.38;7650400;32;40277;-77
2022/06/17 15:37:26;;;;;;;1.42;1.10;;;;;;;29.21;25.55;100103.41;7653477;32;38653;-77
2022/06/17 15:41:54;;;;;;;2.45;1.10;;;;;;;29.35;25.01;100113.94;7642608;32;36870;-77
2022/06/17 15:46:17;;;;;;;3.12;1.02;;;;;;;29.19;24.09;100108.63;7630907;32;39988;-78
2022/06/17 15:50:40;;;;;;;2.97;1.12;;;;;;;28.93;24.68;100112.41;7633725;32;40718;-78
2022/06/17 15:54:58;;;;;;;;;;;;;;;28.89;25.33;100110.78;7626077;32;37613;-78
2022/06/17 15:59:27;;;;;;;3.85;1.23;;;;;;;29.02;24.25;100100.84;7639757;32;36863;-78
2022/06/17 16:03:58;;;;;;;0.88;0.73;;;;;;;29.18;24.83;100104.22;7644511;32;39182;-78
2022/06/17 16:08:34;;;;;;;3.92;1.15;;;;;;;29.13;23.15;100107.38;7656752;32;40295;-75
2022/06/17 16:13:04;;;;;;;3.28;1.02;;;;;;;29.04;25.00;100109.69;7649420;32;37969;-78
2022/06/17 16:17:30;;;;;;;1.08;0.68;;;;;;;28.76;24.21;100104.69;7644511;32;37019;-75
2022/06/17 16:22:00;;;;;;;0.95;0.80;;;;;;;28.94;24.42;100102.00;7631666;32;39356;-78
2022/06/17 16:26:19;;;;;;;2.47;0.90;;;;;;;28.92;24.27;100098.78;7656362;32;39877;-82
2022/06/17 16:30:46;;;;;;;7.53;0.95;;;;;;;28.53;24.27;100104.81;7641877;32;38380;-76
2022/06/17 16:35:02;;;;;;;6.28;0.90;;;;;;;28.41;23.94;100114.34;7656602;32;36750;-79
2022/06/17 16:39:30;;;;;;;2.37;0.93;;;;;;;28.51;24.96;100112.81;7656279;32;39389;-73
2022/06/17 16:43:59;;;;;;;0.65;0.62;;;;;;;28.63;24.41;100109.75;7656398;32;40687;-70
2022/06/17 16:48:16;;;;;;;0.60;0.60;;;;;;;28.32;24.99;100125.88;7643300;32;38289;-71
2022/06/17 16:52:32;;;;;;;0.90;0.70;;;;;;;28.53;24.98;100116.03;7656571;32;37549;-69
2022/06/17 16:56:56;;;;;;;1.15;0.68;;;;;;;27.89;24.19;100117.75;7655970;32;39137;-75
2022/06/17 17:01:12;;;;;;;1.70;0.60;;;;;;;27.64;24.26;100122.25;7630546;32;40836;-76
2022/06/17 17:05:30;;;;;;;2.03;0.90;;;;;;;27.37;26.13;100136.25;7655891;32;38813;-76
2022/06/17 17:09:47;;;;;;;3.20;0.62;;;;;;;27.59;26.47;100130.97;7641368;32;37830;-76
2022/06/17 17:14:05;;;;;;;1.98;0.57;;;;;;;27.71;25.78;100139.94;7655690;32;38794;-75
2022/06/17 17:18:21;;;;;;;0.80;0.80;;;;;;;27.61;26.01;100142.59;7655335;32;39894;-76
2022/06/17 17:22:38;;;;;;;1.37;0.70;;;;;;;27.52;26.00;100154.88;7655369;32;38013;-74
2022/06/17 17:26:56;;;;;;;1.10;0.60;;;;;;;27.50;26.32;100162.84;7655287;32;36788;-72
2022/06/17 17:31:13;;;;;;;3.08;0.90;;;;;;;26.98;27.66;100170.81;7655387;32;39359;-67
2022/06/17 17:35:30;;;;;;;3.00;0.90;;;;;;;26.99;26.90;100171.63;7654552;32;41015;-71
2022/06/17 17:39:46;;;;;;;7.60;0.93;;;;;;;26.81;27.36;100171.31;7655493;32;37824;-76
2022/06/17 17:44:10;;;;;;;2.78;1.00;;;;;;;26.57;29.29;100184.44;7659078;32;37909;-77
2022/06/17 17:48:46;;;;;;;1.08;0.77;;;;;;;26.16;28.52;100175.66;7658232;32;40385;-74
2022/06/17 17:53:02;;;;;;;2.85;0.52;;;;;;;26.19;29.68;100180.53;7658933;32;39576;-74
2022/06/17 17:57:19;;;;;;;6.10;1.25;;;;;;;25.92;29.91;100185.13;7658519;32;38039;-78
2022/06/17 18:01:40;;;;;;;7.95;0.85;;;;;;;25.66;30.22;100185.75;7644100;32;38338;-75
2022/06/17 18:05:58;;;;;;;3.35;0.75;;;;;;;25.64;30.57;100182.53;7659329;32;38148;-75
2022/06/17 18:10:14;;;;;;;15.35;1.25;;;;;;;25.41;29.87;100188.00;7658460;32;39646;-76
2022/06/17 18:14:34;;;;;;;8.73;1.35;;;;;;;25.25;30.37;100188.81;7658158;32;38818;-76
2022/06/17 18:18:50;;;;;;;3.30;0.75;;;;;;;25.07;31.94;100201.47;7644857;32;37597;-76
2022/06/17 18:23:12;;;;;;;5.95;1.25;;;;;;;24.96;32.49;100194.81;7658553;32;39319;-76
2022/06/17 18:27:29;;;;;;;3.22;1.17;;;;;;;24.80;33.31;100200.38;7658157;32;39998;-74
2022/06/17 18:31:48;;;;;;;3.08;0.82;;;;;;;24.59;32.26;100201.44;7657519;32;36454;-74
2022/06/17 18:36:05;;;;;;;2.87;0.98;;;;;;;24.61;32.44;100207.47;7644687;32;36999;-75
2022/06/17 18:40:23;;;;;;;2.00;0.98;;;;;;;24.44;33.07;100213.31;7658191;32;40077;-74
2022/06/17 18:44:40;;;;;;;2.05;1.20;;;;;;;24.21;33.68;100218.66;7658360;32;39939;-73
2022/06/17 18:48:59;;;;;;;0.88;0.85;;;;;;;23.98;33.44;100225.56;7644208;32;37770;-73
2022/06/17 18:53:18;;;;;;;3.30;1.10;;;;;;;23.92;32.07;100223.37;7657576;32;37126;-72
2022/06/17 18:57:34;;;;;;;3.05;1.33;;;;;;;23.81;32.91;100234.19;7656742;32;40196;-74
2022/06/17 19:01:53;;;;;;;2.17;1.02;;;;;;;23.60;33.26;100249.03;7657277;32;40098;-73
2022/06/17 19:06:14;;;;;;;1.35;0.95;;;;;;;23.42;33.45;100250.41;7644402;32;37676;-72
2022/06/17 19:19:40;;;;;;;2.00;0.60;;;;;;;23.30;33.89;100256.81;7652279;32;39683;-73
2022/06/17 19:23:57;;;;;;;0.80;0.80;;;;;;;22.97;35.29;100268.75;7657200;32;37610;-73
2022/06/17 19:28:13;;;;;;;0.93;0.80;;;;;;;22.87;35.61;100274.78;7657372;32;37094;-72
2022/06/17 19:32:40;;;;;;;1.30;0.80;;;;;;;22.60;35.75;100292.84;7656675;32;38891;-73
2022/06/17 19:36:58;;;;;;;1.37;0.90;;;;;;;22.71;35.91;100299.59;7651761;32;40601;-73
2022/06/17 19:45:50;;;;;;;2.70;1.20;;;;;;;21.97;37.28;100320.56;7643235;32;37998;-74
2022/06/17 19:50:10;;;;;;;6.62;1.40;;;;;;;22.00;37.37;100331.00;7657576;32;39439;-74
2022/06/17 19:54:26;;;;;;;1.08;0.98;;;;;;;22.03;38.01;100331.13;7643679;32;39643;-73
2022/06/17 19:58:42;;;;;;;5.12;1.00;;;;;;;21.95;35.58;100329.22;7656601;32;37814;-74
2022/06/17 20:02:58;;;;;;;6.40;1.25;;;;;;;22.08;35.61;100341.25;7655364;32;37292;-75
2022/06/17 20:07:14;;;;;;;2.83;0.93;;;;;;;21.87;36.99;100350.34;7656452;32;40188;-74
2022/06/17 20:11:31;;;;;;;5.07;1.30;;;;;;;22.00;35.52;100356.78;7657209;32;40030;-74
2022/06/17 20:15:48;;;;;;;1.58;1.05;;;;;;;22.04;34.38;100348.59;7643750;32;38016;-72
2022/06/17 20:20:05;;;;;;;1.73;1.20;;;;;;;22.12;34.33;100356.06;7657265;32;37203;-73
2022/06/17 20:24:22;;;;;;;1.37;1.00;;;;;;;21.80;33.71;100355.59;7657405;32;39650;-74
2022/06/17 20:28:38;;;;;;;1.73;1.30;;;;;;;21.91;34.85;100372.69;7657069;32;39604;-74
2022/06/17 20:32:56;;;;;;;2.50;1.20;;;;;;;21.92;34.83;100365.97;7656852;32;38749;-71
2022/06/17 20:37:28;;;;;;;1.60;1.12;;;;;;;21.26;36.22;100366.37;7656983;32;37121;-72
2022/06/17 20:41:45;;;;;;;2.40;1.10;;;;;;;21.31;36.51;100361.44;7657048;32;40145;-74
2022/06/17 20:50:36;;;;;;;6.10;1.40;;;;;;;21.40;37.00;100369.75;7650978;32;38466;-75
2022/06/17 20:54:53;;;;;;;1.67;1.30;;;;;;;21.17;36.35;100372.72;7652445;32;37586;-73
2022/06/17 20:59:09;;;;;;;3.42;1.80;;;;;;;21.32;36.90;100376.94;7655574;32;39804;-73
2022/06/17 21:03:28;;;;;;;2.12;1.60;;;;;;;21.32;36.71;100378.91;7656505;32;39809;-72